Time;durP1;ratioP1;P1;durP2;ratioP2;P2;SDS_P1;SDS_P2;PMS_P1;PMS_P2;Temp;Humidity;BMP_temperature;BMP_pressure;BME280_temperature;BME280_humidity;BME280_pressure;Samples;Min_cycle;Max_cycle;Signal;HPM_P1;HPM_P2
2023/10/06 00:03:05;;;;;;;5.27;3.40;;;13.60;99.90;;;;;;5105586;28;20471;-65
2023/10/06 00:05:31;;;;;;;6.37;3.87;;;13.60;99.90;;;;;;5104516;28;20436;-65
2023/10/06 00:07:57;;;;;;;4.93;3.07;;;13.50;99.90;;;;;;5105784;28;20418;-65
2023/10/06 00:10:27;;;;;;;6.83;3.40;;;13.50;99.90;;;;;;5104811;28;20422;-65
2023/10/06 00:12:58;;;;;;;4.30;3.47;;;13.50;99.90;;;;;;5105609;28;20457;-65
2023/10/06 00:15:40;;;;;;;4.83;2.87;;;13.50;99.90;;;;;;5104865;28;20436;-65
2023/10/06 00:18:12;;;;;;;4.53;3.27;;;13.50;99.90;;;;;;5105402;28;20418;-65
2023/10/06 00:20:42;;;;;;;5.37;3.07;;;13.60;99.90;;;;;;5105128;28;20426;-65
2023/10/06 00:23:14;;;;;;;6.40;3.80;;;13.60;99.90;;;;;;5104671;28;20418;-64
2023/10/06 00:25:43;;;;;;;7.73;3.73;;;13.60;99.90;;;;;;5105160;28;20418;-65
2023/10/06 00:28:16;;;;;;;4.37;2.90;;;13.60;99.90;;;;;;5104285;28;20456;-64
2023/10/06 00:30:42;;;;;;;8.00;4.90;;;13.70;99.90;;;;;;5104766;28;20513;-65
2023/10/06 00:33:10;;;;;;;8.60;4.53;;;13.70;99.90;;;;;;5104264;28;20465;-64
2023/10/06 00:35:36;;;;;;;6.57;4.10;;;13.70;99.90;;;;;;5104317;28;20460;-64
2023/10/06 00:38:17;;;;;;;10.10;4.67;;;13.70;99.90;;;;;;5105049;28;20455;-64
2023/10/06 00:40:51;;;;;;;7.13;4.30;;;13.70;99.90;;;;;;5104818;28;21004;-65
2023/10/06 00:43:41;;;;;;;4.67;3.70;;;13.60;99.90;;;;;;5104045;28;20444;-65
2023/10/06 00:46:07;;;;;;;8.00;4.40;;;13.60;99.90;;;;;;5103884;28;20422;-64
2023/10/06 00:48:35;;;;;;;7.07;3.83;;;13.60;99.90;;;;;;5104638;28;20429;-65
2023/10/06 00:51:04;;;;;;;7.13;4.30;;;13.60;99.90;;;;;;5104383;28;20434;-64
2023/10/06 00:53:31;;;;;;;7.03;3.73;;;13.50;99.90;;;;;;5104554;28;20471;-65
2023/10/06 00:56:10;;;;;;;12.23;3.53;;;13.50;99.90;;;;;;5104488;28;20571;-65
2023/10/06 00:58:41;;;;;;;12.43;3.80;;;13.60;99.90;;;;;;5104389;28;20425;-64
2023/10/06 01:01:13;;;;;;;6.97;3.97;;;13.50;99.90;;;;;;5103760;28;20482;-64
2023/10/06 01:03:44;;;;;;;9.60;4.00;;;13.60;99.90;;;;;;5084146;28;20418;-64
2023/10/06 01:06:14;;;;;;;6.03;3.60;;;13.50;99.90;;;;;;5103726;28;20624;-64
2023/10/06 01:08:52;;;;;;;5.27;3.53;;;13.50;99.90;;;;;;5104579;28;20436;-64
2023/10/06 01:11:26;;;;;;;6.27;3.27;;;13.60;99.90;;;;;;5102687;28;20482;-65
2023/10/06 01:13:56;;;;;;;5.77;4.37;;;13.50;99.90;;;;;;5104396;28;20464;-65
2023/10/06 01:16:25;;;;;;;7.23;3.60;;;13.60;99.90;;;;;;5099247;28;20429;-65
2023/10/06 01:19:00;;;;;;;9.23;3.80;;;13.50;99.90;;;;;;5104337;28;20780;-64
2023/10/06 01:21:28;;;;;;;9.33;3.37;;;13.60;99.90;;;;;;5103636;28;20433;-65
2023/10/06 01:24:00;;;;;;;4.73;3.47;;;13.50;99.90;;;;;;5104052;28;20418;-65
2023/10/06 01:26:26;;;;;;;9.40;4.70;;;13.60;99.90;;;;;;5103428;28;20422;-64
2023/10/06 01:28:53;;;;;;;5.23;3.80;;;13.50;99.90;;;;;;5104115;28;20499;-65
2023/10/06 01:31:19;;;;;;;7.60;5.53;;;13.60;99.90;;;;;;5102844;28;20285;-64
2023/10/06 01:33:45;;;;;;;4.10;3.00;;;13.60;99.90;;;;;;5103647;28;20473;-65
2023/10/06 01:36:13;;;;;;;8.30;4.07;;;13.60;99.90;;;;;;5103429;28;20430;-64
2023/10/06 01:38:43;;;;;;;4.43;3.13;;;13.60;99.90;;;;;;5103989;28;20262;-64
2023/10/06 01:41:11;;;;;;;6.13;3.50;;;13.60;99.90;;;;;;5103123;28;20959;-64
2023/10/06 01:43:38;;;;;;;7.70;4.00;;;13.50;99.90;;;;;;5103655;28;20818;-64
2023/10/06 01:46:07;;;;;;;6.70;3.67;;;13.50;99.90;;;;;;5102960;28;20943;-63
2023/10/06 01:48:34;;;;;;;5.93;3.67;;;13.50;99.90;;;;;;5103734;28;20476;-65
2023/10/06 01:51:00;;;;;;;6.20;3.53;;;13.40;99.90;;;;;;5103290;28;21058;-64
2023/10/06 01:53:32;;;;;;;5.57;3.53;;;13.40;99.90;;;;;;5103304;28;20457;-64
2023/10/06 01:56:01;;;;;;;6.57;3.50;;;13.40;99.90;;;;;;5103180;28;20191;-64
2023/10/06 01:58:27;;;;;;;3.73;3.37;;;13.40;99.90;;;;;;5103263;28;20425;-64
2023/10/06 02:00:53;;;;;;;5.67;3.40;;;13.40;99.90;;;;;;5103692;28;20498;-64
2023/10/06 02:03:21;;;;;;;4.20;3.63;;;13.50;99.90;;;;;;5102972;28;20430;-64
2023/10/06 02:05:47;;;;;;;5.33;3.70;;;13.50;99.90;;;;;;5103244;28;20184;-64
2023/10/06 02:08:16;;;;;;;3.57;3.23;;;13.50;99.90;;;;;;5102765;28;20564;-64
2023/10/06 02:10:43;;;;;;;6.17;3.77;;;13.40;99.90;;;;;;5099626;28;20429;-64
2023/10/06 02:13:08;;;;;;;6.90;3.70;;;13.40;99.90;;;;;;5098227;28;20468;-65
2023/10/06 02:15:34;;;;;;;5.50;3.70;;;13.40;99.90;;;;;;5102817;28;20426;-64
2023/10/06 02:18:00;;;;;;;7.63;3.80;;;13.50;99.90;;;;;;5103136;28;20180;-64
2023/10/06 02:22:52;;;;;;;7.00;3.60;;;13.50;99.90;;;;;;5103494;28;20934;-64
2023/10/06 02:25:18;;;;;;;3.97;2.97;;;13.50;99.90;;;;;;5102823;28;20188;-64
2023/10/06 02:27:47;;;;;;;6.10;4.00;;;13.40;99.90;;;;;;5095432;28;20509;-63
2023/10/06 02:30:18;;;;;;;5.10;3.00;;;13.40;99.90;;;;;;5102010;28;20438;-64
2023/10/06 02:32:45;;;;;;;6.03;3.47;;;13.40;99.90;;;;;;5103381;28;20955;-64
2023/10/06 02:35:16;;;;;;;3.37;2.80;;;13.40;99.90;;;;;;5101897;28;20483;-64
2023/10/06 02:37:45;;;;;;;6.93;3.70;;;13.40;99.90;;;;;;5095155;28;20437;-65
2023/10/06 02:40:12;;;;;;;5.27;3.73;;;13.40;99.90;;;;;;5102543;28;20769;-64
2023/10/06 02:43:16;;;;;;;6.23;3.50;;;13.40;99.90;;;;;;5102586;28;20434;-64
2023/10/06 02:45:40;;;;;;;7.20;3.10;;;13.40;99.90;;;;;;5094984;28;20436;-64
2023/10/06 02:48:15;;;;;;;5.17;3.30;;;13.30;99.90;;;;;;5102117;28;20900;-64
2023/10/06 02:50:44;;;;;;;5.60;3.40;;;13.30;99.90;;;;;;5094676;28;20433;-64
2023/10/06 02:53:13;;;;;;;5.20;3.23;;;13.30;99.90;;;;;;5101977;28;20572;-64
2023/10/06 02:55:43;;;;;;;4.23;3.30;;;13.40;99.90;;;;;;5102479;28;20413;-64
2023/10/06 02:58:10;;;;;;;6.43;3.40;;;13.40;99.90;;;;;;5102089;28;20426;-64
2023/10/06 03:00:36;;;;;;;4.20;3.07;;;13.40;99.90;;;;;;5103008;28;20457;-65
2023/10/06 03:03:18;;;;;;;4.90;3.00;;;13.40;99.90;;;;;;5102127;28;20505;-64
2023/10/06 03:05:49;;;;;;;6.63;3.47;;;13.40;99.90;;;;;;5095793;28;20241;-64
2023/10/06 03:08:20;;;;;;;5.20;3.07;;;13.40;99.90;;;;;;5098923;28;20617;-64
2023/10/06 03:10:48;;;;;;;4.97;3.13;;;13.40;99.90;;;;;;5102671;28;20486;-64
2023/10/06 03:13:43;;;;;;;5.00;3.30;;;13.40;99.90;;;;;;5101806;28;20493;-64
2023/10/06 03:16:11;;;;;;;8.33;3.50;;;13.40;99.90;;;;;;5099926;28;20596;-64
2023/10/06 03:18:38;;;;;;;8.30;4.27;;;13.40;99.90;;;;;;5102782;28;20425;-64
2023/10/06 03:21:15;;;;;;;6.57;3.20;;;13.30;99.90;;;;;;5097008;28;20977;-64
2023/10/06 03:23:47;;;;;;;3.57;2.90;;;13.30;99.90;;;;;;5097429;28;20437;-64
2023/10/06 03:26:29;;;;;;;3.97;3.37;;;13.30;99.90;;;;;;5102024;28;20433;-64
2023/10/06 03:29:01;;;;;;;6.83;3.93;;;13.30;99.90;;;;;;5102149;28;20429;-64
2023/10/06 03:31:44;;;;;;;4.17;2.80;;;13.30;99.90;;;;;;5102630;28;20440;-64
2023/10/06 03:34:15;;;;;;;4.00;3.57;;;13.20;99.90;;;;;;5099153;28;20461;-65
2023/10/06 03:36:46;;;;;;;5.93;3.63;;;13.20;99.90;;;;;;5100944;28;20453;-64
2023/10/06 03:39:13;;;;;;;5.13;3.50;;;13.20;99.90;;;;;;5105594;28;20947;-64
2023/10/06 03:41:44;;;;;;;3.90;3.50;;;13.20;99.90;;;;;;5105665;28;20430;-64
2023/10/06 03:44:11;;;;;;;5.30;3.70;;;13.20;99.90;;;;;;5105546;28;20422;-64
2023/10/06 03:46:38;;;;;;;3.80;3.03;;;13.10;99.90;;;;;;5106187;28;20998;-64
2023/10/06 03:49:07;;;;;;;4.67;3.13;;;13.00;99.90;;;;;;5105323;28;20445;-64
2023/10/06 03:51:40;;;;;;;5.93;3.73;;;13.00;99.90;;;;;;5106427;28;20528;-64
2023/10/06 03:54:07;;;;;;;6.03;3.10;;;13.00;99.90;;;;;;5105114;28;20474;-64
2023/10/06 03:56:34;;;;;;;6.33;3.87;;;13.00;99.90;;;;;;5105871;28;20425;-64
2023/10/06 03:59:00;;;;;;;6.23;3.80;;;13.00;99.90;;;;;;5104952;28;20418;-64
2023/10/06 04:01:26;;;;;;;6.30;3.43;;;13.00;99.90;;;;;;5106230;28;20483;-64
2023/10/06 04:03:58;;;;;;;4.90;3.50;;;13.00;99.90;;;;;;5106512;28;20449;-64
2023/10/06 04:06:25;;;;;;;3.93;2.70;;;13.00;99.90;;;;;;5108162;28;20436;-64
2023/10/06 04:08:52;;;;;;;7.40;3.47;;;13.00;99.90;;;;;;5107284;28;20487;-64
2023/10/06 04:11:19;;;;;;;5.00;3.33;;;13.00;99.90;;;;;;5106149;28;20443;-64
2023/10/06 04:13:45;;;;;;;6.50;3.17;;;13.00;99.90;;;;;;5105827;28;20457;-64
2023/10/06 04:16:14;;;;;;;6.40;4.03;;;13.00;99.90;;;;;;5105175;28;20418;-65
2023/10/06 04:18:41;;;;;;;5.47;3.70;;;13.00;99.90;;;;;;5099107;28;20468;-69
2023/10/06 04:21:11;;;;;;;5.93;3.77;;;13.00;99.90;;;;;;5105512;28;20425;-64
2023/10/06 04:23:42;;;;;;;5.80;3.20;;;13.00;99.90;;;;;;5105803;28;20436;-64
2023/10/06 04:26:10;;;;;;;5.60;3.20;;;13.00;99.90;;;;;;5100550;28;20429;-64
2023/10/06 04:28:37;;;;;;;9.63;3.97;;;13.00;99.90;;;;;;5105487;28;20433;-64
2023/10/06 04:31:05;;;;;;;6.00;3.63;;;13.00;99.90;;;;;;5104915;28;20429;-65
2023/10/06 04:33:31;;;;;;;4.23;3.83;;;13.00;99.90;;;;;;5105407;28;20602;-64
2023/10/06 04:36:07;;;;;;;4.00;2.93;;;13.00;99.90;;;;;;5104050;28;20428;-64
2023/10/06 04:38:40;;;;;;;6.30;3.33;;;13.10;99.90;;;;;;5104859;28;20433;-64
2023/10/06 04:41:07;;;;;;;6.00;3.87;;;13.10;99.90;;;;;;5104199;28;20819;-64
2023/10/06 04:43:34;;;;;;;6.87;3.70;;;13.10;99.90;;;;;;5104880;28;20425;-64
2023/10/06 04:45:59;;;;;;;10.47;4.57;;;13.10;99.90;;;;;;5103913;28;21287;-64
2023/10/06 04:48:25;;;;;;;6.73;3.30;;;13.10;99.90;;;;;;5104892;28;20430;-64
2023/10/06 04:50:51;;;;;;;3.90;3.13;;;13.10;99.90;;;;;;5104215;28;20433;-64
2023/10/06 04:53:17;;;;;;;5.70;2.90;;;13.10;99.90;;;;;;5104659;28;20226;-64
2023/10/06 04:55:43;;;;;;;6.30;3.57;;;13.10;99.90;;;;;;5086153;28;20775;-64
2023/10/06 04:58:13;;;;;;;7.17;4.73;;;13.10;99.90;;;;;;5103986;28;20759;-64
2023/10/06 05:00:39;;;;;;;5.40;3.13;;;13.10;99.90;;;;;;5104487;28;20426;-64
2023/10/06 05:03:06;;;;;;;5.30;3.43;;;13.10;99.90;;;;;;5103975;28;20429;-64
2023/10/06 05:05:37;;;;;;;8.70;3.43;;;13.10;99.90;;;;;;5103843;28;20460;-64
2023/10/06 05:08:25;;;;;;;5.90;3.27;;;13.20;99.90;;;;;;5103579;28;20498;-64
2023/10/06 05:10:52;;;;;;;6.47;3.63;;;13.20;99.90;;;;;;5103557;28;20440;-64
2023/10/06 05:13:17;;;;;;;6.50;3.03;;;13.20;99.90;;;;;;5104294;28;20461;-64
2023/10/06 05:15:43;;;;;;;6.70;3.80;;;13.20;99.90;;;;;;5103935;28;20479;-64
2023/10/06 05:18:15;;;;;;;5.40;4.03;;;13.20;99.90;;;;;;5103597;28;20187;-64
2023/10/06 05:20:42;;;;;;;4.10;3.53;;;13.20;99.90;;;;;;5099607;28;20184;-65
2023/10/06 05:23:14;;;;;;;3.77;3.10;;;13.20;99.90;;;;;;5103675;28;20426;-64
2023/10/06 05:25:42;;;;;;;9.97;3.50;;;13.20;99.90;;;;;;5103547;28;20558;-64
2023/10/06 05:28:10;;;;;;;6.20;3.93;;;13.20;99.90;;;;;;5103563;28;20418;-64
2023/10/06 05:30:37;;;;;;;4.80;3.30;;;13.20;99.90;;;;;;5103889;28;20515;-64
2023/10/06 05:33:04;;;;;;;3.63;3.33;;;13.20;99.90;;;;;;5103898;28;20460;-64
2023/10/06 05:35:39;;;;;;;4.37;3.13;;;13.20;99.90;;;;;;5103697;28;20488;-64
2023/10/06 05:38:13;;;;;;;6.53;3.00;;;13.20;99.90;;;;;;5103161;28;20475;-64
2023/10/06 05:40:40;;;;;;;2.90;2.50;;;13.20;99.90;;;;;;5103396;28;20426;-64
2023/10/06 05:43:11;;;;;;;6.90;5.00;;;13.20;99.90;;;;;;5102630;28;20463;-64
2023/10/06 05:45:41;;;;;;;9.20;4.60;;;13.10;99.90;;;;;;5103440;28;20433;-64
2023/10/06 05:48:11;;;;;;;4.93;3.33;;;13.10;99.90;;;;;;5103072;28;20453;-64
2023/10/06 05:50:38;;;;;;;6.90;3.47;;;13.10;99.90;;;;;;5103372;28;21370;-64
2023/10/06 05:53:05;;;;;;;4.77;3.47;;;13.20;99.90;;;;;;5103190;28;20453;-64
2023/10/06 05:55:34;;;;;;;6.17;3.33;;;13.10;99.90;;;;;;5103328;28;20444;-64
2023/10/06 05:58:01;;;;;;;7.33;3.50;;;13.10;99.90;;;;;;5102744;28;20453;-64
2023/10/06 06:00:30;;;;;;;7.83;3.43;;;13.10;99.90;;;;;;5103329;28;20433;-65
2023/10/06 06:02:58;;;;;;;8.03;3.37;;;13.20;99.90;;;;;;5102611;28;20535;-64
2023/10/06 06:05:29;;;;;;;4.83;3.00;;;13.20;99.90;;;;;;5103163;28;20453;-64
2023/10/06 06:08:03;;;;;;;7.67;3.57;;;13.20;99.90;;;;;;5102597;28;20512;-64
2023/10/06 06:10:29;;;;;;;5.33;3.37;;;13.20;99.90;;;;;;5103211;28;20429;-64
2023/10/06 06:13:00;;;;;;;4.63;3.37;;;13.30;99.90;;;;;;5102704;28;20430;-64
2023/10/06 06:15:26;;;;;;;8.30;3.30;;;13.30;99.90;;;;;;5103130;28;20187;-64
2023/10/06 06:17:58;;;;;;;5.47;3.30;;;13.30;99.90;;;;;;5102741;28;20531;-64
2023/10/06 06:20:33;;;;;;;4.43;3.20;;;13.30;99.90;;;;;;5101169;28;20433;-64
2023/10/06 06:23:02;;;;;;;4.27;3.27;;;13.40;99.90;;;;;;5095822;28;20453;-64
2023/10/06 06:25:28;;;;;;;6.27;2.83;;;13.40;99.90;;;;;;5101748;28;20444;-64
2023/10/06 06:27:55;;;;;;;5.47;3.30;;;13.50;99.90;;;;;;5096708;28;20439;-64
2023/10/06 06:30:24;;;;;;;5.30;3.43;;;13.50;99.90;;;;;;5099717;28;20537;-64
2023/10/06 06:32:52;;;;;;;8.43;3.03;;;13.50;99.90;;;;;;5091364;28;20418;-64
2023/10/06 06:35:22;;;;;;;3.57;3.23;;;13.50;99.90;;;;;;5094885;28;20426;-64
2023/10/06 06:37:56;;;;;;;7.20;3.60;;;13.50;99.90;;;;;;5101758;28;20422;-65
2023/10/06 06:40:22;;;;;;;5.60;3.20;;;13.50;99.90;;;;;;5095010;28;20429;-64
2023/10/06 06:42:49;;;;;;;5.50;3.00;;;13.60;99.90;;;;;;5097502;28;21174;-64
2023/10/06 06:45:15;;;;;;;4.80;2.87;;;13.60;99.90;;;;;;5100222;28;20442;-64
2023/10/06 06:47:42;;;;;;;7.77;3.80;;;13.70;99.90;;;;;;5095347;28;20453;-64
2023/10/06 06:50:13;;;;;;;7.07;3.70;;;13.70;99.90;;;;;;5094395;28;20470;-64
2023/10/06 06:52:39;;;;;;;9.03;3.30;;;13.80;99.90;;;;;;5095339;28;20472;-64
2023/10/06 06:55:12;;;;;;;5.43;3.30;;;13.80;99.90;;;;;;5102256;28;21022;-64
2023/10/06 06:57:43;;;;;;;8.90;3.57;;;13.80;99.90;;;;;;5096397;28;20422;-64
2023/10/06 07:00:16;;;;;;;10.17;3.50;;;13.90;99.90;;;;;;5095410;28;20476;-65
2023/10/06 07:02:43;;;;;;;10.80;3.77;;;14.00;99.90;;;;;;5079333;28;20426;-64
2023/10/06 07:05:14;;;;;;;8.93;3.60;;;14.00;99.90;;;;;;5095739;28;20486;-64
2023/10/06 07:07:43;;;;;;;5.93;3.60;;;14.10;99.90;;;;;;5098498;28;20423;-63
2023/10/06 07:10:14;;;;;;;7.27;3.30;;;14.10;99.90;;;;;;5087896;28;20788;-64
2023/10/06 07:12:42;;;;;;;6.30;3.03;;;14.20;99.90;;;;;;5095471;28;20465;-64
2023/10/06 07:15:14;;;;;;;3.77;2.83;;;14.30;99.90;;;;;;5102730;28;20510;-64
2023/10/06 07:17:45;;;;;;;4.43;2.90;;;14.40;99.90;;;;;;5104964;28;20787;-64
2023/10/06 07:20:16;;;;;;;8.53;3.80;;;14.50;99.90;;;;;;5099168;28;20438;-64
2023/10/06 07:22:46;;;;;;;6.33;3.57;;;14.60;99.90;;;;;;5099143;28;20474;-64
2023/10/06 07:25:15;;;;;;;5.43;3.10;;;14.60;99.90;;;;;;5103085;28;20433;-64
2023/10/06 07:27:42;;;;;;;9.23;3.20;;;14.70;99.90;;;;;;5096537;28;20517;-64
2023/10/06 07:30:11;;;;;;;6.30;3.40;;;14.60;99.90;;;;;;5105493;28;20566;-64
2023/10/06 07:32:43;;;;;;;4.63;3.10;;;14.60;99.90;;;;;;5094743;28;20458;-64
2023/10/06 07:35:13;;;;;;;10.53;3.70;;;14.60;99.90;;;;;;5094067;28;20465;-64
2023/10/06 07:37:42;;;;;;;5.47;3.30;;;14.60;99.90;;;;;;5103136;28;20460;-64
2023/10/06 07:40:12;;;;;;;6.10;3.47;;;14.60;99.90;;;;;;5105959;28;20916;-64
2023/10/06 07:42:40;;;;;;;3.73;3.20;;;14.70;99.90;;;;;;5105706;28;21192;-64
2023/10/06 07:45:07;;;;;;;6.10;3.20;;;14.70;99.90;;;;;;5102906;28;20430;-64
2023/10/06 07:47:34;;;;;;;4.57;3.43;;;14.70;99.90;;;;;;5084824;28;20966;-64
2023/10/06 07:50:00;;;;;;;3.90;3.10;;;14.80;99.90;;;;;;5102945;28;20437;-64
2023/10/06 07:52:26;;;;;;;7.07;3.27;;;15.00;99.90;;;;;;5096971;28;20429;-64
2023/10/06 07:54:52;;;;;;;7.30;3.50;;;15.20;99.90;;;;;;5084416;28;20476;-64
2023/10/06 07:57:18;;;;;;;8.33;3.07;;;15.30;99.90;;;;;;5104826;28;20188;-64
2023/10/06 07:59:44;;;;;;;6.13;3.20;;;15.50;99.90;;;;;;5099207;28;21106;-64
2023/10/06 08:02:10;;;;;;;5.70;2.63;;;15.70;99.90;;;;;;5102183;28;20187;-64
2023/10/06 08:04:36;;;;;;;8.73;4.10;;;15.80;99.90;;;;;;5100692;28;20430;-64
2023/10/06 08:07:02;;;;;;;5.23;2.90;;;16.00;99.90;;;;;;5093925;28;20480;-64
2023/10/06 08:09:28;;;;;;;7.53;3.33;;;16.10;99.90;;;;;;5104326;28;20628;-63
2023/10/06 08:11:54;;;;;;;5.20;3.17;;;16.10;99.90;;;;;;5102500;28;20810;-64
2023/10/06 08:14:20;;;;;;;7.40;3.60;;;16.00;99.90;;;;;;5104741;28;20457;-64
2023/10/06 08:16:49;;;;;;;8.87;3.10;;;16.00;99.90;;;;;;5100149;28;20475;-63
2023/10/06 08:19:15;;;;;;;5.57;2.67;;;16.00;99.90;;;;;;5094139;28;20434;-64
2023/10/06 08:21:41;;;;;;;6.67;3.00;;;15.90;99.90;;;;;;5076188;28;20433;-64
2023/10/06 08:24:08;;;;;;;6.50;3.13;;;16.00;99.90;;;;;;5097128;28;20448;-64
2023/10/06 08:26:36;;;;;;;5.93;2.83;;;16.10;99.90;;;;;;5095192;28;20421;-64
2023/10/06 08:29:04;;;;;;;4.17;3.00;;;16.10;99.90;;;;;;5104199;28;20532;-63
2023/10/06 08:31:30;;;;;;;5.27;3.10;;;16.30;99.90;;;;;;5101862;28;20429;-64
2023/10/06 08:34:01;;;;;;;7.63;3.10;;;16.50;99.90;;;;;;5091710;28;20465;-64
2023/10/06 08:36:27;;;;;;;10.83;3.53;;;16.70;99.90;;;;;;5098756;28;20441;-65
2023/10/06 08:38:53;;;;;;;6.30;3.40;;;16.90;99.90;;;;;;5099161;28;21052;-64
2023/10/06 08:41:28;;;;;;;3.70;3.17;;;17.10;99.90;;;;;;5101855;28;20186;-64
2023/10/06 08:43:55;;;;;;;5.83;2.93;;;17.20;99.90;;;;;;5099232;28;20524;-64
2023/10/06 08:46:22;;;;;;;5.43;3.20;;;17.30;99.90;;;;;;5099668;28;20748;-64
2023/10/06 08:48:50;;;;;;;6.00;3.57;;;17.30;99.90;;;;;;5104808;28;20478;-64
2023/10/06 08:51:22;;;;;;;5.87;2.27;;;17.30;99.90;;;;;;5103017;28;20528;-64
2023/10/06 08:53:50;;;;;;;5.17;3.27;;;17.30;99.90;;;;;;5093490;28;20888;-64
2023/10/06 08:56:17;;;;;;;7.50;3.80;;;17.40;99.90;;;;;;5100557;28;20487;-63
2023/10/06 08:58:44;;;;;;;5.23;3.70;;;17.50;99.90;;;;;;5093787;28;21144;-64
2023/10/06 09:01:13;;;;;;;7.30;3.37;;;17.70;99.90;;;;;;5092710;28;20456;-63
2023/10/06 09:03:38;;;;;;;8.20;3.77;;;17.80;99.90;;;;;;5102811;28;20432;-64
2023/10/06 09:06:06;;;;;;;6.70;3.30;;;17.90;99.90;;;;;;5096301;28;20422;-63
2023/10/06 09:08:44;;;;;;;7.83;3.70;;;18.00;99.90;;;;;;5103954;28;20215;-64
2023/10/06 09:11:10;;;;;;;6.33;3.10;;;18.10;99.90;;;;;;5102826;28;21012;-64
2023/10/06 09:13:36;;;;;;;5.87;3.20;;;18.20;99.90;;;;;;5089362;28;20564;-64
2023/10/06 09:16:03;;;;;;;6.43;3.80;;;18.30;99.90;;;;;;5096002;28;20198;-63
2023/10/06 09:18:34;;;;;;;10.93;3.23;;;18.40;99.90;;;;;;5094750;28;21057;-64
2023/10/06 09:21:18;;;;;;;8.07;3.63;;;18.60;99.90;;;;;;5102970;28;20425;-63
2023/10/06 09:23:44;;;;;;;6.40;3.27;;;18.70;99.90;;;;;;5098624;28;20437;-64
2023/10/06 09:26:11;;;;;;;5.37;2.90;;;18.70;99.90;;;;;;5095427;28;20480;-63
2023/10/06 09:28:52;;;;;;;7.40;3.30;;;18.70;99.90;;;;;;5101903;28;20936;-63
2023/10/06 09:31:33;;;;;;;7.90;3.33;;;18.80;99.90;;;;;;5094291;28;20434;-64
2023/10/06 09:33:59;;;;;;;5.67;3.90;;;18.90;99.90;;;;;;5103131;28;20556;-62
2023/10/06 09:36:30;;;;;;;4.37;2.93;;;19.00;99.90;;;;;;5102855;28;21012;-63
2023/10/06 09:39:00;;;;;;;4.10;3.30;;;19.10;99.90;;;;;;5098326;28;20188;-63
2023/10/06 09:41:34;;;;;;;8.67;3.90;;;19.20;99.90;;;;;;5102597;28;20434;-63
2023/10/06 09:44:10;;;;;;;6.63;3.10;;;19.20;99.90;;;;;;5097115;28;20443;-63
2023/10/06 09:46:38;;;;;;;6.83;3.40;;;19.20;99.90;;;;;;5092813;28;20418;-63
2023/10/06 09:49:05;;;;;;;7.27;3.83;;;19.20;99.90;;;;;;5091660;28;20453;-63
2023/10/06 09:51:37;;;;;;;6.63;3.63;;;19.10;99.90;;;;;;5096307;28;20468;-63
2023/10/06 09:54:09;;;;;;;5.43;3.37;;;19.10;99.90;;;;;;5099273;28;20492;-63
2023/10/06 09:56:36;;;;;;;9.43;3.97;;;19.10;99.90;;;;;;5102767;28;20421;-63
2023/10/06 09:59:07;;;;;;;5.77;3.23;;;19.20;99.90;;;;;;5100902;28;20425;-64
2023/10/06 10:01:35;;;;;;;6.30;3.80;;;19.20;99.90;;;;;;5102097;28;20479;-64
2023/10/06 10:04:01;;;;;;;7.27;3.90;;;19.00;99.90;;;;;;5102453;28;20532;-63
2023/10/06 10:06:28;;;;;;;6.50;3.20;;;18.90;99.90;;;;;;5098405;28;20481;-64
2023/10/06 10:08:54;;;;;;;5.20;2.90;;;18.70;99.90;;;;;;5098095;28;20492;-63
2023/10/06 10:11:29;;;;;;;7.80;3.63;;;18.60;99.90;;;;;;5092924;28;21392;-64
2023/10/06 10:14:07;;;;;;;6.53;3.00;;;18.60;99.90;;;;;;5095501;28;21146;-63
2023/10/06 10:16:45;;;;;;;5.80;3.03;;;18.50;99.90;;;;;;5095416;28;20448;-63
2023/10/06 10:19:14;;;;;;;6.70;3.67;;;18.50;99.90;;;;;;5094435;28;20413;-64
2023/10/06 10:21:41;;;;;;;3.53;2.90;;;18.50;99.90;;;;;;5103160;28;20421;-64
2023/10/06 10:24:13;;;;;;;9.27;3.60;;;18.40;99.90;;;;;;5101940;28;20437;-63
2023/10/06 10:26:39;;;;;;;5.90;2.97;;;18.40;99.90;;;;;;5095498;28;20819;-64
2023/10/06 10:29:17;;;;;;;5.43;3.40;;;18.30;99.90;;;;;;5100079;28;20524;-64
2023/10/06 10:31:46;;;;;;;6.53;3.33;;;18.30;99.90;;;;;;5094688;28;20487;-64
2023/10/06 10:34:20;;;;;;;5.07;3.10;;;18.30;99.90;;;;;;5093762;28;20462;-64
2023/10/06 10:36:48;;;;;;;7.47;3.70;;;18.30;99.90;;;;;;5096439;28;20437;-64
2023/10/06 10:39:17;;;;;;;5.77;3.60;;;18.20;99.90;;;;;;5083840;28;20425;-64
2023/10/06 10:41:45;;;;;;;6.70;3.90;;;18.20;99.90;;;;;;5102940;28;20430;-64
2023/10/06 10:44:12;;;;;;;3.90;2.80;;;18.10;99.90;;;;;;5087500;28;20871;-63
2023/10/06 10:47:01;;;;;;;5.23;4.00;;;18.00;99.90;;;;;;5103463;28;20496;-64
2023/10/06 10:49:32;;;;;;;18.00;4.40;;;17.90;99.90;;;;;;5098382;28;20858;-64
2023/10/06 10:52:05;;;;;;;10.00;3.47;;;17.90;99.90;;;;;;5100203;28;20935;-64
2023/10/06 10:54:33;;;;;;;4.47;3.20;;;17.80;99.90;;;;;;5087701;28;20979;-64
2023/10/06 10:57:09;;;;;;;7.00;3.30;;;17.80;99.90;;;;;;5106636;28;20466;-64
2023/10/06 11:02:49;;;;;;;7.40;3.43;;;17.90;99.90;;;;;;5105731;28;20429;-63
2023/10/06 11:05:22;;;;;;;5.47;3.07;;;17.90;99.90;;;;;;5098198;28;20414;-63
2023/10/06 11:08:16;;;;;;;5.63;2.97;;;17.90;99.90;;;;;;5102206;28;20422;-64
2023/10/06 11:10:42;;;;;;;5.70;2.87;;;18.00;99.90;;;;;;5078425;28;20433;-64
2023/10/06 11:13:27;;;;;;;8.57;3.40;;;18.10;99.90;;;;;;5105678;28;20430;-63
2023/10/06 11:15:52;;;;;;;4.63;3.03;;;18.30;99.90;;;;;;5106660;28;20188;-63
2023/10/06 11:18:20;;;;;;;6.60;3.50;;;18.40;99.90;;;;;;5098162;28;21060;-64
2023/10/06 11:20:47;;;;;;;5.50;3.10;;;18.60;99.90;;;;;;5106325;28;20539;-64
2023/10/06 11:23:14;;;;;;;7.93;2.97;;;18.80;99.90;;;;;;5105530;28;20422;-64
2023/10/06 11:25:48;;;;;;;3.80;2.67;;;18.90;99.90;;;;;;5105799;28;20421;-64
2023/10/06 11:28:15;;;;;;;7.30;2.90;;;19.10;99.90;;;;;;5103915;28;20446;-64
2023/10/06 11:30:42;;;;;;;6.70;3.03;;;19.20;99.90;;;;;;5099678;28;20429;-63
2023/10/06 11:33:10;;;;;;;3.50;2.70;;;19.40;99.90;;;;;;5099516;28;20458;-64
2023/10/06 11:35:40;;;;;;;8.17;2.57;;;19.50;99.90;;;;;;5102503;28;20533;-64
2023/10/06 11:38:15;;;;;;;6.87;2.77;;;19.50;99.90;;;;;;5102064;28;20430;-64
2023/10/06 11:40:42;;;;;;;7.10;3.73;;;19.50;99.90;;;;;;5099170;28;20441;-64
2023/10/06 11:43:14;;;;;;;7.33;3.00;;;19.50;99.90;;;;;;5105143;28;20418;-69
2023/10/06 11:45:42;;;;;;;6.90;2.67;;;19.60;99.90;;;;;;5103557;28;20433;-64
2023/10/06 11:48:24;;;;;;;5.17;2.50;;;19.80;99.90;;;;;;5097663;28;20433;-67
2023/10/06 11:51:01;;;;;;;5.10;2.57;;;19.90;99.90;;;;;;5088642;28;20472;-65
2023/10/06 11:53:27;;;;;;;3.50;2.63;;;20.00;99.90;;;;;;5097826;28;20461;-65
2023/10/06 11:56:04;;;;;;;8.27;2.50;;;20.20;99.90;;;;;;5099796;28;20465;-64
2023/10/06 11:58:32;;;;;;;5.43;2.73;;;20.30;99.90;;;;;;5096138;28;20577;-65
2023/10/06 12:00:58;;;;;;;5.77;2.83;;;20.50;99.90;;;;;;5093318;28;20454;-63
2023/10/06 12:03:42;;;;;;;7.50;3.33;;;20.50;99.90;;;;;;5104590;28;20468;-65
2023/10/06 12:06:12;;;;;;;7.80;3.23;;;20.50;99.90;;;;;;5097553;28;20815;-65
2023/10/06 12:08:52;;;;;;;6.17;2.90;;;20.30;99.90;;;;;;5104978;28;20436;-65
2023/10/06 12:11:19;;;;;;;5.20;3.43;;;20.10;99.90;;;;;;5104239;28;20542;-65
2023/10/06 12:13:45;;;;;;;7.50;3.40;;;19.90;99.90;;;;;;5097831;28;20472;-64
2023/10/06 12:16:12;;;;;;;7.20;2.70;;;19.80;99.90;;;;;;5104483;28;20429;-64
2023/10/06 12:18:38;;;;;;;5.93;2.63;;;19.70;99.90;;;;;;5105498;28;20262;-64
2023/10/06 12:21:06;;;;;;;6.10;3.37;;;19.70;99.90;;;;;;5085511;28;20614;-65
2023/10/06 12:23:32;;;;;;;6.53;2.70;;;19.80;99.90;;;;;;5098971;28;20220;-65
2023/10/06 12:25:58;;;;;;;7.30;3.03;;;19.90;99.90;;;;;;5097829;28;20585;-65
2023/10/06 12:28:25;;;;;;;3.57;2.73;;;20.00;99.90;;;;;;5103270;28;20842;-65
2023/10/06 12:30:52;;;;;;;6.60;3.07;;;20.00;99.90;;;;;;5080184;28;20457;-65
2023/10/06 12:33:18;;;;;;;5.40;3.17;;;20.10;99.90;;;;;;5100437;28;21394;-65
2023/10/06 12:35:43;;;;;;;7.67;2.97;;;20.30;99.90;;;;;;5100649;28;20433;-65
2023/10/06 12:38:09;;;;;;;7.40;2.87;;;20.30;99.90;;;;;;5093286;28;20188;-65
2023/10/06 12:40:38;;;;;;;3.60;2.83;;;20.20;99.90;;;;;;5104873;28;20271;-65
2023/10/06 12:43:03;;;;;;;6.03;2.73;;;20.20;99.90;;;;;;5097722;28;20180;-64
2023/10/06 12:45:29;;;;;;;3.83;2.53;;;20.20;99.90;;;;;;5100721;28;20428;-65
2023/10/06 12:47:54;;;;;;;5.00;2.97;;;20.20;99.90;;;;;;5104197;28;20184;-64
2023/10/06 12:50:21;;;;;;;4.53;2.37;;;20.20;99.90;;;;;;5096293;28;20234;-64
2023/10/06 12:52:54;;;;;;;8.90;2.50;;;20.20;99.90;;;;;;5096632;28;20211;-65
2023/10/06 12:55:27;;;;;;;5.40;2.60;;;20.20;99.90;;;;;;5096248;28;20844;-65
2023/10/06 12:57:53;;;;;;;5.90;2.80;;;20.30;99.90;;;;;;5103757;28;20783;-64
2023/10/06 13:00:19;;;;;;;7.60;3.43;;;20.30;99.90;;;;;;5104118;28;20418;-64
2023/10/06 13:02:47;;;;;;;6.03;3.03;;;20.50;99.90;;;;;;5086437;28;20417;-64
2023/10/06 13:05:16;;;;;;;4.43;2.37;;;20.50;99.90;;;;;;5104091;28;21286;-64